createdAt,value
2022-08-09T00:00:21.089Z,25.20
2022-08-09T00:02:49.422Z,25.20
2022-08-09T00:06:18.224Z,25.20
2022-08-09T00:08:09.656Z,25.10
2022-08-09T00:10:38.318Z,25.10
2022-08-09T00:13:17.503Z,25.10
2022-08-09T00:16:00.167Z,25.10
2022-08-09T00:18:35.846Z,25.10
2022-08-09T00:21:08.735Z,25.00
2022-08-09T00:23:55.578Z,25.00
2022-08-09T00:26:32.412Z,25.00
2022-08-09T00:29:12.536Z,25.00
2022-08-09T00:31:59.470Z,25.00
2022-08-09T00:34:28.093Z,24.90
2022-08-09T00:37:00.540Z,24.90
2022-08-09T00:40:13.802Z,24.90
2022-08-09T00:44:16.718Z,24.90
2022-08-09T00:45:16.015Z,24.90
2022-08-09T00:47:44.147Z,24.80
2022-08-09T00:50:14.442Z,24.80
2022-08-09T00:52:42.155Z,24.80
2022-08-09T00:55:10.260Z,24.80
2022-08-09T00:57:43.943Z,24.80
2022-08-09T01:00:21.803Z,24.80
2022-08-09T01:02:57.996Z,24.70
2022-08-09T01:05:53.592Z,24.70
2022-08-09T01:08:58.477Z,24.70
2022-08-09T01:11:56.172Z,24.70
2022-08-09T01:14:55.630Z,24.60
2022-08-09T01:17:25.944Z,24.60
2022-08-09T01:20:03.385Z,24.60
2022-08-09T01:24:01.012Z,24.60
2022-08-09T01:26:11.853Z,24.60
2022-08-09T01:28:47.703Z,24.50
2022-08-09T01:32:28.103Z,24.50
2022-08-09T01:34:10.242Z,24.50
2022-08-09T01:36:40.959Z,24.50
2022-08-09T01:39:08.747Z,24.50
2022-08-09T01:41:53.375Z,24.40
2022-08-09T01:44:23.809Z,24.40
2022-08-09T01:46:53.024Z,24.40
2022-08-09T01:49:24.095Z,24.40
2022-08-09T01:51:58.918Z,24.40
2022-08-09T01:54:44.427Z,24.40
2022-08-09T01:57:31.770Z,24.40
2022-08-09T02:00:34.974Z,24.30
2022-08-09T02:02:59.319Z,24.30
2022-08-09T02:05:38.081Z,24.30
2022-08-09T02:08:39.147Z,24.30
2022-08-09T02:11:17.000Z,24.30
2022-08-09T02:13:55.306Z,24.30
2022-08-09T02:16:59.873Z,24.20
2022-08-09T02:19:38.786Z,24.20
2022-08-09T02:22:35.067Z,24.20
2022-08-09T02:25:10.125Z,24.20
2022-08-09T02:28:00.050Z,24.10
2022-08-09T02:30:37.364Z,24.10
2022-08-09T02:33:08.046Z,24.10
2022-08-09T02:36:01.305Z,24.10
2022-08-09T02:38:36.362Z,24.10
2022-08-09T02:41:17.290Z,24.10
2022-08-09T02:43:54.889Z,24.10
2022-08-09T02:46:29.214Z,24.00
2022-08-09T02:49:00.435Z,24.00
2022-08-09T02:51:37.119Z,24.00
2022-08-09T02:54:13.735Z,24.00
2022-08-09T02:56:51.008Z,23.90
2022-08-09T02:59:26.195Z,24.00
2022-08-09T03:02:09.727Z,23.90
2022-08-09T03:04:45.113Z,23.90
2022-08-09T03:07:14.658Z,23.90
2022-08-09T03:09:56.347Z,23.90
2022-08-09T03:12:27.523Z,23.90
2022-08-09T03:14:57.347Z,23.80
2022-08-09T03:17:26.586Z,23.80
2022-08-09T03:20:00.358Z,23.80
2022-08-09T03:22:33.616Z,23.80
2022-08-09T03:25:26.000Z,23.80
2022-08-09T03:27:59.296Z,23.80
2022-08-09T03:30:29.980Z,23.80
2022-08-09T03:33:12.894Z,23.70
2022-08-09T03:36:13.757Z,23.70
2022-08-09T03:38:32.387Z,23.70
2022-08-09T03:40:59.514Z,23.60
2022-08-09T03:43:32.147Z,23.60
2022-08-09T03:46:05.159Z,23.60
2022-08-09T03:48:52.954Z,23.60
2022-08-09T03:51:56.250Z,23.60
2022-08-09T03:54:14.370Z,23.60
2022-08-09T03:56:42.299Z,23.60
2022-08-09T03:59:17.280Z,23.60
2022-08-09T04:01:56.754Z,23.50
2022-08-09T04:04:36.274Z,23.60
2022-08-09T04:07:06.268Z,23.50
2022-08-09T04:09:41.742Z,23.50
2022-08-09T04:12:30.822Z,23.50
2022-08-09T04:15:11.492Z,23.50
2022-08-09T04:17:47.452Z,23.50
2022-08-09T04:20:16.211Z,23.40
2022-08-09T04:22:44.552Z,23.50
2022-08-09T04:25:12.873Z,23.50
2022-08-09T04:27:49.213Z,23.40
2022-08-09T04:30:20.975Z,23.40
2022-08-09T04:32:51.669Z,23.40
2022-08-09T04:35:21.588Z,23.40
2022-08-09T04:37:49.776Z,23.40
2022-08-09T04:40:19.228Z,23.40
2022-08-09T04:42:56.727Z,23.30
2022-08-09T04:45:24.182Z,23.30
2022-08-09T04:48:00.994Z,23.30
2022-08-09T04:50:31.960Z,23.30
2022-08-09T04:53:02.609Z,23.30
2022-08-09T04:55:38.197Z,23.30
2022-08-09T04:58:09.335Z,23.30
2022-08-09T05:00:37.397Z,23.30
2022-08-09T05:03:30.308Z,23.30
2022-08-09T05:06:06.508Z,23.30
2022-08-09T05:08:35.669Z,23.30
2022-08-09T05:11:03.723Z,23.30
2022-08-09T05:13:34.226Z,23.20
2022-08-09T05:16:10.111Z,23.20
2022-08-09T05:18:58.493Z,23.20
2022-08-09T05:21:29.949Z,23.20
2022-08-09T05:24:03.667Z,23.20
2022-08-09T05:26:36.676Z,23.20
2022-08-09T05:29:21.760Z,23.20
2022-08-09T05:31:56.961Z,23.20
2022-08-09T05:34:32.728Z,23.20
2022-08-09T05:37:06.410Z,23.20
2022-08-09T05:39:43.602Z,23.20
2022-08-09T05:42:17.887Z,23.20
2022-08-09T05:44:53.028Z,23.20
2022-08-09T05:47:25.297Z,23.20
2022-08-09T05:50:34.913Z,23.20
2022-08-09T05:52:44.299Z,23.20
2022-08-09T05:55:18.165Z,23.10
2022-08-09T05:57:55.572Z,23.10
2022-08-09T06:00:26.715Z,23.20
2022-08-09T06:02:57.851Z,23.10
2022-08-09T06:05:31.137Z,23.10
2022-08-09T06:08:13.818Z,23.20
2022-08-09T06:10:47.124Z,23.20
2022-08-09T06:13:20.351Z,23.20
2022-08-09T06:15:51.374Z,23.20
2022-08-09T06:18:25.326Z,23.20
2022-08-09T06:20:57.635Z,23.20
2022-08-09T06:23:57.810Z,23.20
2022-08-09T06:26:21.233Z,23.20
2022-08-09T06:29:00.215Z,23.20
2022-08-09T06:31:30.626Z,23.20
2022-08-09T06:33:58.696Z,23.20
2022-08-09T06:36:27.324Z,23.20
2022-08-09T06:38:57.663Z,23.30
2022-08-09T06:41:40.572Z,23.20
2022-08-09T06:44:14.419Z,23.30
2022-08-09T06:46:48.266Z,23.30
2022-08-09T06:49:29.160Z,23.10
2022-08-09T06:52:05.468Z,22.90
2022-08-09T06:54:34.831Z,22.90
2022-08-09T06:57:01.987Z,22.70
2022-08-09T07:00:52.508Z,22.70
2022-08-09T07:02:16.726Z,22.70
2022-08-09T07:04:43.909Z,22.60
2022-08-09T07:07:12.222Z,22.60
2022-08-09T07:10:10.499Z,22.60
2022-08-09T07:12:46.432Z,22.60
2022-08-09T07:16:35.028Z,22.60
2022-08-09T07:18:14.181Z,22.60
2022-08-09T07:20:43.711Z,22.60
2022-08-09T07:23:18.712Z,22.60
2022-08-09T07:25:52.537Z,22.70
2022-08-09T07:28:31.308Z,22.70
2022-08-09T07:31:04.805Z,22.70
2022-08-09T07:33:52.127Z,22.70
2022-08-09T07:36:20.167Z,22.70
2022-08-09T07:39:00.372Z,22.70
2022-08-09T07:41:32.855Z,22.80
2022-08-09T07:44:05.745Z,22.70
2022-08-09T07:46:33.977Z,22.80
2022-08-09T07:49:04.158Z,22.90
2022-08-09T07:52:05.684Z,22.90
2022-08-09T07:54:28.015Z,22.90
2022-08-09T07:56:58.523Z,22.90
2022-08-09T07:59:45.947Z,23.00
2022-08-09T08:02:19.536Z,23.00
2022-08-09T08:04:49.016Z,23.00
2022-08-09T08:08:44.351Z,23.00
2022-08-09T08:10:10.994Z,23.00
2022-08-09T08:12:43.587Z,23.00
2022-08-09T08:15:16.626Z,23.00
2022-08-09T08:17:54.673Z,23.00
2022-08-09T08:20:30.447Z,23.10
2022-08-09T08:23:06.323Z,23.10
2022-08-09T08:25:44.602Z,23.20
2022-08-09T08:28:15.530Z,23.20
2022-08-09T08:30:45.691Z,23.30
2022-08-09T08:33:23.046Z,23.40
2022-08-09T08:35:59.327Z,23.50
2022-08-09T08:38:29.671Z,23.60
2022-08-09T08:40:58.362Z,23.70
2022-08-09T08:43:26.589Z,23.80
2022-08-09T08:46:03.913Z,23.80
2022-08-09T08:48:52.018Z,23.80
2022-08-09T08:51:23.188Z,23.90
2022-08-09T08:54:04.438Z,23.90
2022-08-09T08:56:41.618Z,24.00
2022-08-09T08:59:19.939Z,24.00
2022-08-09T09:01:53.306Z,24.10
2022-08-09T09:04:29.824Z,24.10
2022-08-09T09:07:07.935Z,24.20
2022-08-09T09:09:58.704Z,24.30
2022-08-09T09:12:29.147Z,24.40
2022-08-09T09:14:59.008Z,24.40
2022-08-09T09:17:46.410Z,24.50
2022-08-09T09:20:15.740Z,24.60
2022-08-09T09:23:01.874Z,24.70
2022-08-09T09:26:01.189Z,24.80
2022-08-09T09:29:02.859Z,24.90
2022-08-09T09:32:06.062Z,24.90
2022-08-09T09:34:14.626Z,25.00
2022-08-09T09:36:53.080Z,25.10
2022-08-09T09:39:42.744Z,25.10
2022-08-09T09:42:25.884Z,25.10
2022-08-09T09:45:03.244Z,25.20
2022-08-09T09:47:32.947Z,25.20
2022-08-09T09:50:15.928Z,25.20
2022-08-09T09:52:54.465Z,25.30
2022-08-09T09:55:31.904Z,25.40
2022-08-09T09:58:16.385Z,25.40
2022-08-09T10:00:54.147Z,25.40
2022-08-09T10:03:57.314Z,25.50
2022-08-09T10:06:38.711Z,25.50
2022-08-09T10:09:22.682Z,25.60
2022-08-09T10:12:14.423Z,25.60
2022-08-09T10:14:49.168Z,25.70
2022-08-09T10:17:50.735Z,25.70
2022-08-09T10:20:27.805Z,25.70
2022-08-09T10:23:20.400Z,25.80
2022-08-09T10:26:07.029Z,25.90
2022-08-09T10:28:43.315Z,25.90
2022-08-09T10:34:08.870Z,26.00
2022-08-09T10:36:39.875Z,26.00
2022-08-09T10:39:15.905Z,26.10
2022-08-09T10:41:47.726Z,26.10
2022-08-09T10:44:22.230Z,26.20
2022-08-09T10:48:12.013Z,26.20
2022-08-09T10:50:06.394Z,26.30
2022-08-09T10:52:43.021Z,26.30
2022-08-09T10:55:35.776Z,26.40
2022-08-09T10:58:33.802Z,26.50
2022-08-09T11:03:02.530Z,26.50
2022-08-09T11:04:19.373Z,26.60
2022-08-09T11:07:01.599Z,26.60
2022-08-09T11:09:47.431Z,26.70
2022-08-09T11:12:29.408Z,26.70
2022-08-09T11:15:23.906Z,26.80
2022-08-09T11:18:03.114Z,26.90
2022-08-09T11:20:49.675Z,26.90
2022-08-09T11:23:23.996Z,27.00
2022-08-09T11:25:54.684Z,27.00
2022-08-09T11:28:33.759Z,27.00
2022-08-09T11:31:50.258Z,27.10
2022-08-09T11:34:29.682Z,27.10
2022-08-09T11:37:00.272Z,27.20
2022-08-09T11:39:38.067Z,27.30
2022-08-09T11:42:14.868Z,27.30
2022-08-09T11:44:46.546Z,27.50
2022-08-09T11:47:15.443Z,27.50
2022-08-09T11:50:56.228Z,27.60
2022-08-09T11:53:20.713Z,27.70
2022-08-09T11:55:53.505Z,27.80
2022-08-09T11:58:32.914Z,28.00
2022-08-09T12:01:37.554Z,28.20
2022-08-09T12:04:04.820Z,28.60
2022-08-09T12:06:35.261Z,28.90
2022-08-09T12:09:19.164Z,29.30
2022-08-09T12:12:05.275Z,29.60
2022-08-09T12:14:41.099Z,29.80
2022-08-09T12:17:27.584Z,29.90
2022-08-09T12:19:59.602Z,30.00
2022-08-09T12:22:29.183Z,30.20
2022-08-09T12:25:16.198Z,30.40
2022-08-09T12:29:11.257Z,30.40
2022-08-09T12:30:36.947Z,30.50
2022-08-09T12:33:07.375Z,30.80
2022-08-09T12:35:40.685Z,31.00
2022-08-09T12:38:29.794Z,31.50
2022-08-09T12:41:04.698Z,31.90
2022-08-09T12:44:05.879Z,32.10
2022-08-09T12:46:23.708Z,32.20
2022-08-09T12:48:55.797Z,32.00
2022-08-09T12:51:52.749Z,32.00
2022-08-09T12:54:11.076Z,32.10
2022-08-09T12:56:51.329Z,32.20
2022-08-09T12:59:23.734Z,32.20
2022-08-09T13:01:59.784Z,32.40
2022-08-09T13:04:35.789Z,32.60
2022-08-09T13:07:16.522Z,32.80
2022-08-09T13:10:00.977Z,33.10
2022-08-09T13:13:10.023Z,33.30
2022-08-09T13:16:03.870Z,33.60
2022-08-09T13:18:47.030Z,33.80
2022-08-09T13:23:00.687Z,33.80
2022-08-09T13:24:44.440Z,34.00
2022-08-09T13:27:04.712Z,34.00
2022-08-09T13:30:03.247Z,34.20
2022-08-09T13:32:27.503Z,34.30
2022-08-09T13:35:05.765Z,34.30
2022-08-09T13:37:52.269Z,34.30
2022-08-09T13:41:54.257Z,34.40
2022-08-09T13:43:09.836Z,34.40
2022-08-09T13:46:44.753Z,34.50
2022-08-09T13:48:24.668Z,34.50
2022-08-09T13:50:51.929Z,34.40
2022-08-09T13:53:19.174Z,34.30
2022-08-09T13:55:47.886Z,34.30
2022-08-09T13:58:15.101Z,34.20
2022-08-09T14:00:48.190Z,34.10
2022-08-09T14:04:03.250Z,34.00
2022-08-09T14:06:19.291Z,33.90
2022-08-09T14:08:52.999Z,33.70
2022-08-09T14:11:20.423Z,33.50
2022-08-09T14:14:22.923Z,33.40
2022-08-09T14:16:34.727Z,33.20
2022-08-09T14:19:01.849Z,33.00
2022-08-09T14:21:29.304Z,32.90
2022-08-09T14:24:00.973Z,32.70
2022-08-09T14:26:32.571Z,32.60
2022-08-09T14:29:08.211Z,32.50
2022-08-09T14:31:53.386Z,32.30
2022-08-09T14:34:27.539Z,32.20
2022-08-09T14:37:06.842Z,32.00
2022-08-09T14:39:46.212Z,31.90
2022-08-09T14:42:30.185Z,31.80
2022-08-09T14:46:40.044Z,31.60
2022-08-09T14:47:58.070Z,31.60
2022-08-09T14:50:27.757Z,31.50
2022-08-09T14:52:55.104Z,31.40
2022-08-09T14:55:22.167Z,31.30
2022-08-09T14:57:49.709Z,31.20
2022-08-09T15:00:20.986Z,31.10
2022-08-09T15:02:51.857Z,31.00
2022-08-09T15:05:20.018Z,30.90
2022-08-09T15:07:56.687Z,30.80
2022-08-09T15:10:26.339Z,30.80
2022-08-09T15:12:54.735Z,30.70
2022-08-09T15:15:22.166Z,30.60
2022-08-09T15:17:52.331Z,30.50
2022-08-09T15:21:58.346Z,30.40
2022-08-09T15:24:00.955Z,30.30
2022-08-09T15:25:58.559Z,30.30
2022-08-09T15:28:27.701Z,30.30
2022-08-09T15:31:14.570Z,30.20
2022-08-09T15:34:15.534Z,30.10
2022-08-09T15:36:31.209Z,30.10
2022-08-09T15:39:00.147Z,29.90
2022-08-09T15:41:31.720Z,29.90
2022-08-09T15:44:01.727Z,29.80
2022-08-09T15:46:33.028Z,29.80
2022-08-09T15:49:21.832Z,29.70
2022-08-09T15:52:04.905Z,29.70
2022-08-09T15:54:44.800Z,29.60
2022-08-09T15:57:34.112Z,29.60
2022-08-09T16:00:13.868Z,29.60
2022-08-09T16:02:48.230Z,29.50
2022-08-09T16:05:23.509Z,29.50
2022-08-09T16:07:51.280Z,29.50
2022-08-09T16:10:55.158Z,29.40
2022-08-09T16:13:20.865Z,29.40
2022-08-09T16:16:10.399Z,29.30
2022-08-09T16:18:45.181Z,29.30
2022-08-09T16:21:17.708Z,29.30
2022-08-09T16:24:01.633Z,29.30
2022-08-09T16:26:34.484Z,29.20
2022-08-09T16:29:11.713Z,29.10
2022-08-09T16:32:17.965Z,29.00
2022-08-09T16:34:29.140Z,29.00
2022-08-09T16:36:56.787Z,29.00
2022-08-09T16:39:25.689Z,28.90
2022-08-09T16:42:03.685Z,28.90
2022-08-09T16:44:32.662Z,28.90
2022-08-09T16:47:03.940Z,28.80
2022-08-09T16:50:31.352Z,28.70
2022-08-09T16:52:19.150Z,28.70
2022-08-09T16:54:46.287Z,28.60
2022-08-09T16:57:16.398Z,28.70
2022-08-09T16:59:44.099Z,28.50
2022-08-09T17:02:17.977Z,28.50
2022-08-09T17:04:50.656Z,28.50
2022-08-09T17:08:46.847Z,28.40
2022-08-09T17:10:09.434Z,28.40
2022-08-09T17:12:38.300Z,28.30
2022-08-09T17:15:30.769Z,28.30
2022-08-09T17:18:00.741Z,28.30
2022-08-09T17:20:35.749Z,28.20
2022-08-09T17:23:06.224Z,28.20
2022-08-09T17:25:37.620Z,28.10
2022-08-09T17:28:07.122Z,28.10
2022-08-09T17:30:34.970Z,28.10
2022-08-09T17:33:05.738Z,28.00
2022-08-09T17:35:50.242Z,28.00
2022-08-09T17:38:32.315Z,27.90
2022-08-09T17:41:04.418Z,27.90
2022-08-09T17:43:35.467Z,27.80
2022-08-09T17:46:08.722Z,27.70
2022-08-09T17:48:40.255Z,27.70
2022-08-09T17:51:18.821Z,27.70
2022-08-09T17:53:53.601Z,27.70
2022-08-09T17:56:28.840Z,27.60
2022-08-09T17:58:58.734Z,27.50
2022-08-09T18:01:58.055Z,27.40
2022-08-09T18:04:13.877Z,27.40
2022-08-09T18:06:43.090Z,27.30
2022-08-09T18:09:21.280Z,27.20
2022-08-09T18:12:14.625Z,27.20
2022-08-09T18:14:37.658Z,27.10
2022-08-09T18:17:18.830Z,27.10
2022-08-09T18:20:54.198Z,27.10
2022-08-09T18:22:54.110Z,27.00
2022-08-09T18:25:21.358Z,26.90
2022-08-09T18:28:21.568Z,26.90
2022-08-09T18:30:56.313Z,26.90
2022-08-09T18:33:23.941Z,26.80
2022-08-09T18:36:00.198Z,26.80
2022-08-09T18:38:28.368Z,26.70
2022-08-09T18:40:56.225Z,26.80
2022-08-09T18:43:25.021Z,26.80
2022-08-09T18:46:47.501Z,26.70
2022-08-09T18:48:42.200Z,26.70
2022-08-09T18:51:10.003Z,26.60
2022-08-09T18:53:56.941Z,26.60
2022-08-09T18:56:28.055Z,26.60
2022-08-09T18:59:01.203Z,26.50
2022-08-09T19:01:28.773Z,26.50
2022-08-09T19:04:10.947Z,26.40
2022-08-09T19:06:39.034Z,26.40
2022-08-09T19:09:33.995Z,26.30
2022-08-09T19:12:07.603Z,26.30
2022-08-09T19:14:35.032Z,26.20
2022-08-09T19:17:03.605Z,26.00
2022-08-09T19:19:41.336Z,26.00
2022-08-09T19:22:09.043Z,26.00
2022-08-09T19:25:07.429Z,25.90
2022-08-09T19:27:25.892Z,25.90
2022-08-09T19:30:22.962Z,25.90
2022-08-09T19:32:44.273Z,25.80
2022-08-09T19:35:11.415Z,25.70
2022-08-09T19:37:52.790Z,25.70
2022-08-09T19:40:22.043Z,25.70
2022-08-09T19:42:49.695Z,25.60
2022-08-09T19:45:17.479Z,25.60
2022-08-09T19:47:45.652Z,25.50
2022-08-09T19:50:51.284Z,25.40
2022-08-09T19:53:02.416Z,25.40
2022-08-09T19:56:02.106Z,25.40
2022-08-09T19:58:30.219Z,25.30
2022-08-09T20:00:58.613Z,25.20
2022-08-09T20:04:17.044Z,25.10
2022-08-09T20:06:23.726Z,25.10
2022-08-09T20:08:59.572Z,25.00
2022-08-09T20:11:33.754Z,25.00
2022-08-09T20:14:13.090Z,25.00
2022-08-09T20:16:48.981Z,25.00
2022-08-09T20:19:47.669Z,25.00
2022-08-09T20:22:08.967Z,25.00
2022-08-09T20:24:37.433Z,25.00
2022-08-09T20:27:11.669Z,25.00
2022-08-09T20:29:41.153Z,24.90
2022-08-09T20:32:30.615Z,24.90
2022-08-09T20:34:58.263Z,24.80
2022-08-09T20:37:25.827Z,24.80
2022-08-09T20:40:19.079Z,24.80
2022-08-09T20:43:00.283Z,24.80
2022-08-09T20:45:59.756Z,24.70
2022-08-09T20:48:29.096Z,24.70
2022-08-09T20:50:58.745Z,24.70
2022-08-09T20:53:36.178Z,24.60
2022-08-09T20:56:19.905Z,24.60
2022-08-09T20:58:54.579Z,24.60
2022-08-09T21:01:35.267Z,24.50
2022-08-09T21:05:51.660Z,24.50
2022-08-09T21:07:11.918Z,24.40
2022-08-09T21:09:56.900Z,24.50
2022-08-09T21:15:23.788Z,24.30
2022-08-09T21:18:23.094Z,24.30
2022-08-09T21:20:54.130Z,24.30
2022-08-09T21:23:22.502Z,24.30
2022-08-09T21:26:03.623Z,24.20
2022-08-09T21:28:36.184Z,24.20
2022-08-09T21:31:17.668Z,24.20
2022-08-09T21:33:53.016Z,24.20
2022-08-09T21:36:28.935Z,24.10
2022-08-09T21:38:59.659Z,24.10
2022-08-09T21:42:05.884Z,24.10
2022-08-09T21:44:32.808Z,24.00
2022-08-09T21:47:03.634Z,23.90
2022-08-09T21:49:39.780Z,23.90
2022-08-09T21:52:16.392Z,23.90
2022-08-09T21:55:03.001Z,23.80
2022-08-09T21:57:39.169Z,23.80
2022-08-09T22:00:33.462Z,23.80
2022-08-09T22:03:06.843Z,23.70
2022-08-09T22:05:42.352Z,23.70
2022-08-09T22:08:13.883Z,23.70
2022-08-09T22:11:50.291Z,23.60
2022-08-09T22:13:36.751Z,23.60
2022-08-09T22:16:07.620Z,23.60
2022-08-09T22:18:37.647Z,23.60
2022-08-09T22:21:09.556Z,23.60
2022-08-09T22:23:58.613Z,23.60
2022-08-09T22:26:35.165Z,23.70
2022-08-09T22:29:09.753Z,23.80
2022-08-09T22:31:50.421Z,23.80
2022-08-09T22:34:28.799Z,23.90
2022-08-09T22:36:59.060Z,23.90
2022-08-09T22:39:57.097Z,23.90
2022-08-09T22:42:21.978Z,24.00
2022-08-09T22:45:00.415Z,24.00
2022-08-09T22:48:11.233Z,24.00
2022-08-09T22:50:28.125Z,24.00
2022-08-09T22:52:57.880Z,24.00
2022-08-09T22:55:39.471Z,24.00
2022-08-09T22:58:20.226Z,24.00
2022-08-09T23:00:59.709Z,24.00
2022-08-09T23:04:02.535Z,24.00
2022-08-09T23:06:14.467Z,24.00
2022-08-09T23:08:57.018Z,24.00
2022-08-09T23:11:24.038Z,24.00
2022-08-09T23:13:54.984Z,24.00
2022-08-09T23:16:23.034Z,23.90
2022-08-09T23:18:50.248Z,23.90
2022-08-09T23:21:24.532Z,23.90
2022-08-09T23:24:05.496Z,24.00
2022-08-09T23:26:37.140Z,23.90
2022-08-09T23:29:11.674Z,23.90
2022-08-09T23:31:39.185Z,23.90
2022-08-09T23:34:06.642Z,23.90
2022-08-09T23:36:35.183Z,23.90
2022-08-09T23:39:04.716Z,23.90
2022-08-09T23:41:32.080Z,23.90
2022-08-09T23:44:00.378Z,23.90
2022-08-09T23:46:31.352Z,23.80
2022-08-09T23:48:59.391Z,23.80
2022-08-09T23:51:27.772Z,23.80
2022-08-09T23:54:02.497Z,23.80
2022-08-09T23:56:53.520Z,23.80
2022-08-09T23:59:21.606Z,23.80
